Time;durP1;ratioP1;P1;durP2;ratioP2;P2;SDS_P1;SDS_P2;PMS_P1;PMS_P2;Temp;Humidity;BMP_temperature;BMP_pressure;BME280_temperature;BME280_humidity;BME280_pressure;Samples;Min_cycle;Max_cycle;Signal;HPM_P1;HPM_P2
2022/03/25 00:01:22;;;;;;;45.13;20.67;;;;;;;7.29;75.48;97616.91;4960998;28;20045;-68
2022/03/25 00:03:48;;;;;;;45.83;21.00;;;;;;;7.29;73.99;97627.53;4978483;28;20145;-72
2022/03/25 00:06:13;;;;;;;41.60;20.95;;;;;;;7.23;76.14;97621.16;4976639;28;20034;-70
2022/03/25 00:08:39;;;;;;;45.60;20.25;;;;;;;7.24;74.38;97612.19;4975418;28;20041;-70
2022/03/25 00:11:05;;;;;;;47.13;20.52;;;;;;;7.25;73.51;97611.97;4976733;28;20076;-69
2022/03/25 00:13:30;;;;;;;42.70;19.83;;;;;;;7.24;71.76;97621.00;4978941;28;20591;-68
2022/03/25 00:15:57;;;;;;;38.45;19.20;;;;;;;7.32;71.65;97617.34;4980675;28;20535;-73
2022/03/25 00:18:22;;;;;;;47.05;20.17;;;;;;;7.22;76.45;97619.53;4978068;28;20058;-70
2022/03/25 00:20:49;;;;;;;44.72;20.30;;;;;;;7.11;77.98;97623.59;4979680;28;20081;-71
2022/03/25 00:23:15;;;;;;;46.22;20.30;;;;;;;7.15;74.92;97618.69;4978455;28;20492;-70
2022/03/25 00:25:41;;;;;;;41.35;19.38;;;;;;;7.18;77.11;97621.78;4980090;28;20943;-68
2022/03/25 00:28:07;;;;;;;43.35;19.60;;;;;;;7.19;75.22;97626.06;4975458;28;20118;-70
2022/03/25 00:30:34;;;;;;;39.53;18.65;;;;;;;7.23;77.45;97618.50;4978580;28;20068;-69
2022/03/25 00:33:00;;;;;;;35.45;16.55;;;;;;;7.18;77.46;97611.13;4977030;28;20049;-71
2022/03/25 00:35:26;;;;;;;46.50;18.27;;;;;;;7.26;76.53;97623.44;4977592;28;20098;-70
2022/03/25 00:37:52;;;;;;;45.58;17.90;;;;;;;7.25;78.19;97625.28;4960627;28;20053;-70
2022/03/25 00:40:17;;;;;;;35.95;17.52;;;;;;;7.20;76.96;97627.72;4961235;28;20041;-69
2022/03/25 00:42:47;;;;;;;39.38;17.20;;;;;;;7.28;78.48;97628.56;4959266;28;20113;-71
2022/03/25 00:45:12;;;;;;;38.72;17.17;;;;;;;7.22;78.75;97628.34;4975688;28;20631;-68
2022/03/25 00:47:38;;;;;;;47.00;18.85;;;;;;;7.16;76.93;97625.63;4976886;28;20042;-69
2022/03/25 00:50:04;;;;;;;35.00;16.95;;;;;;;7.07;79.59;97621.50;4967566;28;20040;-70
2022/03/25 00:52:29;;;;;;;38.97;17.90;;;;;;;7.04;75.64;97614.75;4979320;28;20039;-72
2022/03/25 00:54:55;;;;;;;46.83;17.80;;;;;;;7.02;76.61;97611.47;4981616;28;20332;-72
2022/03/25 00:57:20;;;;;;;41.78;17.33;;;;;;;7.10;74.70;97607.81;4978221;28;21310;-70
2022/03/25 00:59:46;;;;;;;41.53;17.38;;;;;;;7.18;75.54;97611.13;4984144;28;20096;-71
2022/03/25 01:02:12;;;;;;;33.45;15.75;;;;;;;7.15;77.66;97610.69;4952241;28;20046;-70
2022/03/25 01:04:37;;;;;;;39.88;17.13;;;;;;;7.18;76.49;97611.13;4985261;28;20042;-72
2022/03/25 01:07:04;;;;;;;41.40;17.38;;;;;;;7.20;74.79;97611.75;4966068;28;20093;-72
2022/03/25 01:09:29;;;;;;;37.85;17.60;;;;;;;7.15;73.04;97608.84;4982797;28;20040;-70
2022/03/25 01:11:55;;;;;;;36.28;15.95;;;;;;;7.09;73.17;97596.34;4965415;28;20030;-69
2022/03/25 01:14:21;;;;;;;35.63;16.02;;;;;;;7.07;73.89;97600.22;4982113;28;21483;-69
2022/03/25 01:16:48;;;;;;;40.80;16.00;;;;;;;7.00;76.55;97600.19;4970864;28;20121;-68
2022/03/25 01:19:13;;;;;;;38.45;16.65;;;;;;;6.96;75.40;97607.75;4981185;28;20042;-71
2022/03/25 01:21:39;;;;;;;37.22;15.85;;;;;;;6.91;80.28;97607.50;4984301;28;20046;-71
2022/03/25 01:24:08;;;;;;;34.28;15.60;;;;;;;6.81;77.31;97599.06;4965287;28;20489;-71
2022/03/25 01:26:34;;;;;;;39.63;15.52;;;;;;;6.74;77.57;97598.22;4978150;28;20089;-71
2022/03/25 01:29:01;;;;;;;33.33;15.38;;;;;;;6.65;81.80;97594.06;4959835;28;20108;-70
2022/03/25 01:31:27;;;;;;;38.50;15.45;;;;;;;6.60;83.00;97596.50;4957889;28;20058;-72
2022/03/25 01:33:53;;;;;;;35.22;15.25;;;;;;;6.55;81.03;97598.94;4960640;28;20109;-72
2022/03/25 01:36:19;;;;;;;37.35;15.45;;;;;;;6.48;82.90;97598.88;4961445;28;20144;-70
2022/03/25 01:38:44;;;;;;;36.83;14.43;;;;;;;6.37;83.49;97581.63;4978524;28;20066;-70
2022/03/25 01:41:10;;;;;;;34.17;15.02;;;;;;;6.35;84.69;97583.66;4976720;28;20160;-70
2022/03/25 01:43:36;;;;;;;33.22;15.40;;;;;;;6.14;86.57;97586.34;4973350;28;20170;-71
2022/03/25 01:46:02;;;;;;;40.10;15.57;;;;;;;6.14;86.14;97591.69;4976326;28;20197;-71
2022/03/25 01:48:28;;;;;;;39.60;14.77;;;;;;;6.12;87.91;97586.56;4977614;28;20097;-69
2022/03/25 01:50:53;;;;;;;30.73;15.02;;;;;;;6.14;84.76;97584.53;4975783;28;20054;-69
2022/03/25 01:53:24;;;;;;;38.08;16.70;;;;;;;6.12;85.21;97578.59;4975492;28;20038;-72
2022/03/25 01:55:58;;;;;;;36.15;15.10;;;;;;;6.09;88.23;97578.97;4976237;28;20042;-70
2022/03/25 01:58:28;;;;;;;35.78;15.48;;;;;;;6.11;87.62;97576.94;4961812;28;20121;-69
2022/03/25 02:00:55;;;;;;;38.85;15.70;;;;;;;6.07;88.85;97578.38;4974579;28;20082;-71
2022/03/25 02:03:21;;;;;;;34.85;14.70;;;;;;;6.01;87.73;97580.97;4972202;28;20117;-70
2022/03/25 02:05:48;;;;;;;38.35;15.02;;;;;;;5.99;88.51;97580.31;4966618;28;20045;-70
2022/03/25 02:08:14;;;;;;;40.50;16.00;;;;;;;5.98;88.82;97571.53;4976048;28;20734;-72
2022/03/25 02:10:40;;;;;;;39.67;15.75;;;;;;;5.95;89.38;97571.09;4975722;28;20406;-69
2022/03/25 02:13:08;;;;;;;36.60;14.98;;;;;;;5.93;89.60;97570.47;4954821;28;20478;-71
2022/03/25 02:15:39;;;;;;;38.95;15.40;;;;;;;5.91;90.82;97567.16;4967798;28;20566;-69
2022/03/25 02:18:12;;;;;;;32.97;16.05;;;;;;;5.90;86.45;97568.16;4967167;28;20042;-70
2022/03/25 02:20:39;;;;;;;32.67;15.20;;;;;;;5.86;90.39;97570.38;4976073;28;20039;-69
2022/03/25 02:23:08;;;;;;;37.35;14.50;;;;;;;5.88;87.81;97571.81;4959340;28;20486;-70
2022/03/25 02:25:35;;;;;;;46.13;16.05;;;;;;;5.90;86.03;97568.16;4974786;28;20158;-71
2022/03/25 02:28:04;;;;;;;38.38;15.68;;;;;;;5.87;86.94;97567.53;4991835;28;20148;-71
2022/03/25 02:30:31;;;;;;;45.97;15.55;;;;;;;5.91;86.17;97572.47;4977997;28;20050;-71
2022/03/25 02:33:00;;;;;;;33.58;14.98;;;;;;;5.88;90.22;97571.00;4977667;28;20096;-71
2022/03/25 02:35:43;;;;;;;42.00;15.93;;;;;;;5.85;89.63;97569.56;4978623;28;20046;-70
2022/03/25 02:38:11;;;;;;;33.67;16.48;;;;;;;5.88;86.24;97574.47;4977547;28;20706;-73
2022/03/25 02:40:37;;;;;;;36.65;15.95;;;;;;;5.78;89.38;97571.34;4995445;28;20125;-72
2022/03/25 02:43:03;;;;;;;34.45;15.63;;;;;;;5.81;88.63;97575.44;4992234;28;20042;-72
2022/03/25 02:45:29;;;;;;;43.25;16.17;;;;;;;5.79;86.71;97578.28;4994740;28;20042;-69
2022/03/25 02:47:54;;;;;;;36.33;16.42;;;;;;;5.65;93.62;97579.19;4979474;28;20049;-72
2022/03/25 02:50:20;;;;;;;38.28;15.32;;;;;;;5.56;90.96;97582.97;4984711;28;20038;-69
2022/03/25 02:52:45;;;;;;;40.95;16.33;;;;;;;5.52;90.08;97587.00;4980389;28;20041;-70
2022/03/25 02:55:12;;;;;;;33.80;15.70;;;;;;;5.44;90.30;97581.81;4976767;28;20586;-69
2022/03/25 02:57:39;;;;;;;35.13;16.70;;;;;;;5.33;92.84;97583.13;4976417;28;20456;-74
2022/03/25 03:00:08;;;;;;;44.38;17.17;;;;;;;5.16;96.37;97585.22;4976530;28;20044;-70
2022/03/25 03:02:38;;;;;;;36.53;16.80;;;;;;;4.97;97.82;97580.47;4980900;28;20087;-70
2022/03/25 03:05:06;;;;;;;40.13;17.02;;;;;;;4.87;96.15;97585.25;4979541;28;20121;-70
2022/03/25 03:07:32;;;;;;;43.28;17.23;;;;;;;4.85;98.76;97587.28;4982514;28;20042;-70
2022/03/25 03:09:58;;;;;;;44.72;17.30;;;;;;;4.77;98.68;97588.19;4980915;28;20061;-70
2022/03/25 03:12:24;;;;;;;39.22;17.60;;;;;;;4.89;95.23;97592.00;4978189;28;20039;-69
2022/03/25 03:14:50;;;;;;;43.90;18.10;;;;;;;4.88;96.57;97589.53;4978708;28;20417;-69
2022/03/25 03:17:15;;;;;;;35.10;16.55;;;;;;;4.88;96.03;97589.53;4978427;28;20045;-71
2022/03/25 03:19:41;;;;;;;39.53;17.85;;;;;;;4.91;98.55;97594.50;4978198;28;20385;-71
2022/03/25 03:22:06;;;;;;;39.15;17.52;;;;;;;4.87;98.57;97587.91;4980031;28;20474;-71
2022/03/25 03:24:32;;;;;;;40.65;17.52;;;;;;;4.90;94.83;97590.19;4979771;28;20072;-69
2022/03/25 03:26:58;;;;;;;38.92;16.83;;;;;;;4.88;95.52;97590.38;4971102;28;20111;-68
2022/03/25 03:29:24;;;;;;;39.97;18.27;;;;;;;4.78;95.52;97592.50;4981071;28;20045;-69
2022/03/25 03:31:50;;;;;;;36.55;16.73;;;;;;;4.78;95.82;97594.31;4977899;28;20859;-70
2022/03/25 03:34:16;;;;;;;35.42;16.90;;;;;;;4.79;96.34;97588.00;4976436;28;20042;-73
2022/03/25 03:36:41;;;;;;;39.05;17.17;;;;;;;4.78;96.76;97591.66;4978574;28;20038;-70
2022/03/25 03:39:07;;;;;;;35.78;16.95;;;;;;;4.71;95.88;97580.97;4976581;28;20121;-69
2022/03/25 03:41:33;;;;;;;40.05;18.27;;;;;;;4.66;96.10;97581.50;4976683;28;20157;-69
2022/03/25 03:43:58;;;;;;;48.67;18.02;;;;;;;4.67;96.29;97591.13;4981069;28;20384;-70
2022/03/25 03:46:23;;;;;;;37.95;18.25;;;;;;;4.64;96.87;97588.00;4977152;28;20511;-71
2022/03/25 03:48:50;;;;;;;37.80;17.33;;;;;;;4.64;96.41;97588.00;4976985;28;20145;-71
2022/03/25 03:51:15;;;;;;;39.13;17.58;;;;;;;4.66;96.20;97588.66;4976911;28;20045;-72
2022/03/25 03:53:41;;;;;;;35.67;16.70;;;;;;;4.57;99.64;97587.91;4977328;28;20128;-69
2022/03/25 03:56:07;;;;;;;37.53;17.75;;;;;;;4.57;96.78;97585.25;4979198;28;20038;-70
2022/03/25 03:58:32;;;;;;;39.67;18.70;;;;;;;4.42;100.00;97577.31;4980067;28;20446;-71
2022/03/25 04:00:58;;;;;;;39.85;17.75;;;;;;;4.53;98.00;97585.84;4978471;28;20046;-69
2022/03/25 04:03:23;;;;;;;40.47;18.75;;;;;;;4.54;99.07;97583.00;4979270;28;20892;-73
2022/03/25 04:05:49;;;;;;;43.45;18.48;;;;;;;4.60;98.88;97592.06;4978084;28;20045;-73
2022/03/25 04:08:15;;;;;;;40.25;18.73;;;;;;;4.62;99.76;97590.84;4962730;28;20125;-69
2022/03/25 04:10:41;;;;;;;39.70;18.58;;;;;;;4.64;96.84;97586.19;4977965;28;20038;-70
2022/03/25 04:13:07;;;;;;;47.03;19.55;;;;;;;4.65;97.90;97584.34;4977121;28;20042;-70
2022/03/25 04:15:34;;;;;;;44.30;19.48;;;;;;;4.66;96.62;97592.13;4980159;28;20100;-71
2022/03/25 04:18:00;;;;;;;48.47;20.10;;;;;;;4.68;98.44;97592.78;4978193;28;20496;-71
2022/03/25 04:20:26;;;;;;;40.03;19.33;;;;;;;4.72;96.65;97591.38;4975057;28;20043;-71
2022/03/25 04:22:51;;;;;;;42.10;19.02;;;;;;;4.71;97.24;97589.75;4980227;28;20489;-69
2022/03/25 04:25:17;;;;;;;43.83;21.00;;;;;;;4.68;98.73;97590.13;4979247;28;20120;-72
2022/03/25 04:27:57;;;;;;;43.90;20.98;;;;;;;4.70;97.34;97589.94;4977321;28;20532;-69
2022/03/25 04:30:25;;;;;;;42.50;19.50;;;;;;;4.55;97.69;97594.41;4976384;28;20069;-71
2022/03/25 04:32:51;;;;;;;44.60;19.60;;;;;;;4.53;100.00;97597.25;4980716;28;20046;-70
2022/03/25 04:35:17;;;;;;;45.47;19.30;;;;;;;4.52;100.00;97595.63;4979159;28;20370;-70
2022/03/25 04:37:43;;;;;;;44.47;19.50;;;;;;;4.53;98.43;97594.59;4976914;28;20074;-71
2022/03/25 04:40:17;;;;;;;43.15;19.98;;;;;;;4.54;98.19;97604.19;4976554;28;20484;-71
2022/03/25 04:42:44;;;;;;;41.75;20.40;;;;;;;4.48;100.00;97597.78;4979495;28;20046;-71
2022/03/25 04:45:10;;;;;;;46.03;21.75;;;;;;;4.41;100.00;97598.69;4978484;28;20048;-72
2022/03/25 04:47:35;;;;;;;50.80;20.67;;;;;;;4.35;100.00;97602.06;4979532;28;20541;-69
2022/03/25 04:50:01;;;;;;;41.67;18.50;;;;;;;4.24;100.00;97603.34;4978974;28;20101;-71
2022/03/25 04:52:27;;;;;;;43.72;20.85;;;;;;;4.12;100.00;97597.66;4977356;28;20046;-70
2022/03/25 04:54:52;;;;;;;46.22;20.92;;;;;;;4.12;100.00;97600.28;4977815;28;20042;-68
2022/03/25 04:57:18;;;;;;;42.40;20.08;;;;;;;4.03;100.00;97596.06;4975308;28;20042;-73
2022/03/25 04:59:43;;;;;;;46.95;20.75;;;;;;;3.94;100.00;97602.47;4977106;28;20042;-72
2022/03/25 05:02:10;;;;;;;45.13;20.52;;;;;;;3.97;100.00;97601.25;4979272;28;20128;-72
2022/03/25 05:04:36;;;;;;;47.72;20.27;;;;;;;4.01;100.00;97608.69;4978246;28;20042;-70
2022/03/25 05:07:02;;;;;;;45.45;20.70;;;;;;;3.90;100.00;97603.84;4979718;28;20387;-73
2022/03/25 05:09:27;;;;;;;52.60;19.98;;;;;;;3.87;100.00;97612.13;4979685;28;20038;-71
2022/03/25 05:11:53;;;;;;;47.28;20.83;;;;;;;3.78;100.00;97608.72;4961643;28;20060;-70
2022/03/25 05:14:19;;;;;;;49.58;20.98;;;;;;;3.80;100.00;97604.06;4978190;28;20038;-69
2022/03/25 05:16:44;;;;;;;44.60;20.77;;;;;;;3.85;100.00;97608.81;4980853;28;20061;-69
2022/03/25 05:19:10;;;;;;;46.83;22.40;;;;;;;3.85;100.00;97604.34;4978210;28;20132;-70
2022/03/25 05:21:37;;;;;;;50.25;21.90;;;;;;;3.88;100.00;97605.81;4977616;28;20395;-68
2022/03/25 05:24:03;;;;;;;46.90;21.23;;;;;;;3.86;100.00;97615.75;4973563;28;20398;-68
2022/03/25 05:26:28;;;;;;;53.50;22.48;;;;;;;3.71;100.00;97613.06;4975337;28;20054;-71
2022/03/25 05:28:53;;;;;;;53.78;21.73;;;;;;;3.76;100.00;97612.53;4975299;28;20177;-72
2022/03/25 05:31:19;;;;;;;46.58;20.05;;;;;;;3.83;100.00;97608.19;4977623;28;20283;-69
2022/03/25 05:33:44;;;;;;;45.97;21.90;;;;;;;3.84;100.00;97612.47;4979400;28;20138;-71
2022/03/25 05:36:10;;;;;;;42.00;20.75;;;;;;;3.88;100.00;97614.56;4975887;28;20645;-69
2022/03/25 05:38:35;;;;;;;42.92;21.23;;;;;;;3.89;100.00;97618.03;4979164;28;20042;-72
2022/03/25 05:41:01;;;;;;;43.08;20.45;;;;;;;3.91;100.00;97616.88;4980450;28;20431;-72
2022/03/25 05:43:26;;;;;;;43.78;20.35;;;;;;;3.91;100.00;97616.88;4978888;28;20041;-72
2022/03/25 05:45:52;;;;;;;46.15;21.25;;;;;;;3.93;100.00;97622.00;4980564;28;20443;-69
2022/03/25 05:48:17;;;;;;;50.55;23.00;;;;;;;3.95;100.00;97617.34;4979555;28;20034;-70
2022/03/25 05:50:43;;;;;;;53.22;22.55;;;;;;;3.88;100.00;97621.69;4981595;28;20113;-71
2022/03/25 05:53:08;;;;;;;53.55;22.20;;;;;;;3.92;100.00;97617.72;4980541;28;20034;-69
2022/03/25 05:55:34;;;;;;;50.50;22.38;;;;;;;3.95;100.00;97625.28;4981652;28;20129;-70
2022/03/25 05:58:01;;;;;;;54.45;22.77;;;;;;;3.95;100.00;97629.75;4978773;28;20057;-70
2022/03/25 06:00:26;;;;;;;51.67;22.52;;;;;;;3.99;100.00;97623.94;4981239;28;20105;-71
2022/03/25 06:02:51;;;;;;;51.85;22.95;;;;;;;3.99;100.00;97625.78;4982332;28;20033;-69
2022/03/25 06:05:18;;;;;;;55.38;22.75;;;;;;;4.00;100.00;97622.94;4975972;28;20132;-69
2022/03/25 06:07:44;;;;;;;48.67;22.70;;;;;;;3.98;100.00;97634.72;4982103;28;20031;-69
2022/03/25 06:10:11;;;;;;;48.00;22.67;;;;;;;4.05;100.00;97636.47;4977451;28;20039;-70
2022/03/25 06:12:39;;;;;;;56.53;21.75;;;;;;;4.08;100.00;97633.47;4981158;28;20124;-72
2022/03/25 06:15:06;;;;;;;52.20;22.98;;;;;;;4.03;100.00;97643.75;4979444;28;20062;-71
2022/03/25 06:17:31;;;;;;;48.65;22.60;;;;;;;4.11;100.00;97642.88;4981314;28;20057;-70
2022/03/25 06:19:58;;;;;;;44.67;21.65;;;;;;;4.23;100.00;97633.50;4980639;28;20280;-69
2022/03/25 06:22:24;;;;;;;42.72;21.55;;;;;;;4.24;100.00;97644.91;4979757;28;20030;-69
2022/03/25 06:24:53;;;;;;;53.78;22.95;;;;;;;4.29;100.00;97639.91;4980076;28;20467;-70
2022/03/25 06:27:20;;;;;;;49.95;22.77;;;;;;;4.33;100.00;97646.47;4977659;28;20043;-71
2022/03/25 06:29:45;;;;;;;54.25;22.00;;;;;;;4.37;100.00;97645.13;4980217;28;20481;-71
2022/03/25 06:32:12;;;;;;;47.63;21.35;;;;;;;4.50;100.00;97650.63;4980186;28;20053;-71
2022/03/25 06:34:37;;;;;;;53.70;23.00;;;;;;;4.58;100.00;97645.22;4982764;28;20386;-68
2022/03/25 06:37:03;;;;;;;52.33;23.23;;;;;;;4.68;100.00;97651.09;4981219;28;20038;-71
2022/03/25 06:39:29;;;;;;;56.15;25.08;;;;;;;4.84;100.00;97652.75;4981633;28;20064;-68
2022/03/25 06:41:55;;;;;;;52.08;23.55;;;;;;;4.94;100.00;97655.94;4978348;28;20065;-70
2022/03/25 06:44:20;;;;;;;65.30;21.80;;;;;;;4.98;100.00;97654.59;4976051;28;20905;-72
2022/03/25 06:46:46;;;;;;;55.53;22.38;;;;;;;5.01;100.00;97650.72;4980981;28;20034;-69
2022/03/25 06:49:11;;;;;;;52.85;21.95;;;;;;;5.12;100.00;97650.25;4978295;28;20120;-70
2022/03/25 06:51:37;;;;;;;51.60;23.40;;;;;;;5.26;100.00;97648.59;4980196;28;20489;-69
2022/03/25 06:54:03;;;;;;;47.33;22.52;;;;;;;5.32;100.00;97640.72;4977296;28;20133;-69
2022/03/25 06:56:32;;;;;;;54.30;23.40;;;;;;;5.45;100.00;97653.34;4978023;28;20042;-72
2022/03/25 06:58:58;;;;;;;53.92;22.35;;;;;;;5.57;100.00;97649.16;4980511;28;20125;-72
2022/03/25 07:01:25;;;;;;;54.35;23.67;;;;;;;5.64;100.00;97648.41;4977976;28;20052;-68
2022/03/25 07:03:50;;;;;;;68.28;23.85;;;;;;;5.77;98.97;97657.34;4981295;28;20148;-70
2022/03/25 07:06:22;;;;;;;52.42;22.42;;;;;;;5.88;97.66;97648.03;4976514;28;20575;-71
2022/03/25 07:08:48;;;;;;;;;;;;;;;6.01;100.00;97658.03;4979883;28;20481;-71
2022/03/25 07:11:13;;;;;;;58.03;22.48;;;;;;;6.11;97.42;97646.03;4978671;28;20337;-71
2022/03/25 07:13:39;;;;;;;55.97;22.48;;;;;;;6.20;97.45;97645.91;4978714;28;20083;-69
2022/03/25 07:16:05;;;;;;;55.40;21.92;;;;;;;6.26;96.79;97648.63;4975382;28;20050;-69
2022/03/25 07:18:31;;;;;;;49.90;22.00;;;;;;;6.41;94.25;97659.19;4977221;28;20423;-72
2022/03/25 07:20:59;;;;;;;56.95;22.83;;;;;;;6.53;93.41;97654.13;4983203;28;20061;-71
2022/03/25 07:23:24;;;;;;;65.63;24.15;;;;;;;6.61;93.02;97649.47;4976641;28;20042;-70
2022/03/25 07:25:50;;;;;;;56.58;23.92;;;;;;;6.75;92.51;97650.41;4980182;28;20045;-71
2022/03/25 07:28:15;;;;;;;56.58;22.63;;;;;;;6.85;91.65;97648.22;4974511;28;20131;-71
2022/03/25 07:30:41;;;;;;;55.85;23.48;;;;;;;6.94;90.77;97652.38;4973835;28;20667;-68
2022/03/25 07:33:06;;;;;;;59.83;22.25;;;;;;;7.06;87.79;97643.81;4981205;28;20038;-68
2022/03/25 07:35:32;;;;;;;57.28;23.50;;;;;;;7.18;88.53;97652.91;4979169;28;20107;-71
2022/03/25 07:37:57;;;;;;;51.30;23.08;;;;;;;7.29;88.25;97655.00;4977196;28;20038;-68
2022/03/25 07:40:23;;;;;;;54.38;23.13;;;;;;;7.38;87.60;97659.13;4962356;28;20042;-69
2022/03/25 07:42:49;;;;;;;49.40;22.60;;;;;;;7.47;87.11;97651.78;4977004;28;20557;-69
2022/03/25 07:45:16;;;;;;;48.50;22.63;;;;;;;7.58;86.16;97659.19;4964570;28;20065;-68
2022/03/25 07:47:47;;;;;;;48.83;22.27;;;;;;;7.65;86.18;97654.72;4979580;28;20145;-70
2022/03/25 07:50:15;;;;;;;55.90;23.35;;;;;;;7.79;87.25;97666.25;4978015;28;20370;-68
2022/03/25 07:52:41;;;;;;;61.78;23.67;;;;;;;7.95;88.66;97670.38;4979644;28;20050;-72
2022/03/25 07:55:09;;;;;;;53.17;22.48;;;;;;;8.04;87.46;97659.31;4978822;28;20085;-68
2022/03/25 07:57:36;;;;;;;60.33;26.05;;;;;;;8.25;87.60;97662.78;4979545;28;20058;-69
2022/03/25 08:00:11;;;;;;;57.97;26.15;;;;;;;8.47;86.29;97658.94;4977581;28;20049;-72
2022/03/25 08:02:38;;;;;;;55.92;25.23;;;;;;;8.60;84.89;97663.47;4979856;28;20046;-71
2022/03/25 08:05:05;;;;;;;53.08;24.95;;;;;;;8.73;85.41;97665.31;4978844;28;20038;-72
2022/03/25 08:07:30;;;;;;;54.97;24.73;;;;;;;8.92;83.94;97662.59;4967050;28;20046;-71
2022/03/25 08:09:56;;;;;;;55.28;25.73;;;;;;;9.17;78.59;97669.91;4980272;28;20112;-68
2022/03/25 08:12:21;;;;;;;56.58;25.63;;;;;;;9.32;76.70;97669.66;4979493;28;20125;-70
2022/03/25 08:14:47;;;;;;;52.55;25.23;;;;;;;9.44;78.75;97668.00;4978549;28;20077;-70
2022/03/25 08:17:13;;;;;;;60.15;25.50;;;;;;;9.55;76.50;97664.63;4978676;28;20464;-72
2022/03/25 08:19:39;;;;;;;54.80;25.63;;;;;;;9.71;75.46;97674.03;4980354;28;20452;-72
2022/03/25 08:22:07;;;;;;;59.13;27.00;;;;;;;9.86;76.57;97665.72;4979296;28;20038;-71
2022/03/25 08:30:00;;;;;;;54.83;23.55;;;;;;;10.32;68.07;97678.84;4979184;28;20336;-69
2022/03/25 08:32:26;;;;;;;58.30;25.23;;;;;;;10.48;64.38;97669.44;4961650;28;20449;-70
2022/03/25 08:34:51;;;;;;;59.22;26.00;;;;;;;10.58;63.54;97683.16;4948456;28;20486;-73
2022/03/25 08:37:17;;;;;;;51.97;25.77;;;;;;;10.67;63.68;97678.38;4978936;28;20046;-70
2022/03/25 08:39:43;;;;;;;52.42;24.33;;;;;;;10.75;63.24;97680.75;4977093;28;20038;-71
2022/03/25 08:42:08;;;;;;;53.53;25.08;;;;;;;10.85;65.69;97673.84;4972755;28;20325;-70
2022/03/25 08:44:34;;;;;;;54.78;24.80;;;;;;;11.00;64.26;97678.88;4977009;28;20052;-68
2022/03/25 08:47:00;;;;;;;52.58;25.30;;;;;;;11.12;58.33;97681.63;4971111;28;20050;-72
2022/03/25 08:49:26;;;;;;;52.92;24.58;;;;;;;11.27;61.11;97682.06;4955781;28;20041;-71
2022/03/25 08:51:51;;;;;;;63.85;24.45;;;;;;;11.33;57.62;97683.88;4977508;28;20034;-71
2022/03/25 08:54:18;;;;;;;59.53;26.33;;;;;;;11.48;54.70;97682.69;4981641;28;20039;-69
2022/03/25 08:56:44;;;;;;;54.03;24.67;;;;;;;11.59;56.43;97682.72;4976615;28;20043;-71
2022/03/25 08:59:09;;;;;;;50.15;22.92;;;;;;;11.77;55.20;97675.72;4978960;28;20494;-69
2022/03/25 09:01:35;;;;;;;48.65;24.23;;;;;;;11.87;53.12;97682.22;4980844;28;20274;-69
2022/03/25 09:04:00;;;;;;;51.05;23.60;;;;;;;11.94;51.45;97672.22;4982795;28;20047;-71
2022/03/25 09:06:26;;;;;;;57.38;27.02;;;;;;;12.07;50.76;97681.94;4980170;28;20481;-70
2022/03/25 09:08:52;;;;;;;55.75;25.55;;;;;;;12.14;49.02;97681.81;4979289;28;20061;-72
2022/03/25 09:11:18;;;;;;;46.25;25.17;;;;;;;12.28;51.08;97688.63;4964317;28;20030;-70
2022/03/25 09:13:44;;;;;;;51.20;24.92;;;;;;;12.38;49.32;97685.41;4978659;28;20045;-72
2022/03/25 09:16:11;;;;;;;51.40;25.75;;;;;;;12.38;47.69;97685.41;4980918;28;20042;-69
2022/03/25 09:18:37;;;;;;;49.75;23.65;;;;;;;12.48;47.95;97683.78;4981042;28;20074;-72
2022/03/25 09:21:02;;;;;;;50.67;23.58;;;;;;;12.60;46.86;97677.63;4982957;28;20624;-70
2022/03/25 09:23:28;;;;;;;57.83;23.17;;;;;;;12.70;46.89;97680.56;4983610;28;20484;-70
2022/03/25 09:25:54;;;;;;;57.42;26.00;;;;;;;12.87;47.88;97681.50;4980249;28;20048;-71
2022/03/25 09:28:19;;;;;;;59.40;24.88;;;;;;;13.03;47.17;97685.34;4978062;28;20077;-70
2022/03/25 09:30:45;;;;;;;48.45;24.63;;;;;;;13.11;45.36;97693.88;4976879;28;20051;-71
2022/03/25 09:33:10;;;;;;;49.78;25.58;;;;;;;13.22;45.45;97688.75;4976016;28;20129;-69
2022/03/25 09:35:40;;;;;;;52.25;25.90;;;;;;;13.43;45.45;97687.34;4948741;28;20066;-70
2022/03/25 09:38:06;;;;;;;49.10;24.52;;;;;;;13.58;43.67;97682.28;4976114;28;20038;-68
2022/03/25 09:40:32;;;;;;;44.47;21.10;;;;;;;13.65;45.23;97689.16;4974998;28;20174;-72
2022/03/25 09:42:58;;;;;;;52.70;25.50;;;;;;;13.85;45.62;97693.28;4975134;28;20113;-70
2022/03/25 09:45:26;;;;;;;54.55;25.35;;;;;;;14.07;44.68;97701.53;4972566;28;20232;-68
2022/03/25 09:47:53;;;;;;;51.15;25.60;;;;;;;14.08;43.86;97701.28;4978506;28;20038;-70
2022/03/25 09:50:23;;;;;;;52.85;24.60;;;;;;;14.22;43.67;97694.53;4979086;28;20040;-70
2022/03/25 09:52:50;;;;;;;56.08;24.23;;;;;;;14.27;42.63;97696.53;4980077;28;20041;-72
2022/03/25 09:55:16;;;;;;;51.90;24.58;;;;;;;14.14;41.95;97700.31;4975853;28;20046;-69
2022/03/25 09:57:42;;;;;;;50.78;25.52;;;;;;;14.22;41.46;97702.63;4975124;28;20049;-70
2022/03/25 10:00:12;;;;;;;47.75;24.20;;;;;;;14.33;41.62;97695.56;4977032;28;20484;-68
2022/03/25 10:02:40;;;;;;;45.47;23.88;;;;;;;14.39;41.27;97688.38;4974889;28;20061;-69
2022/03/25 10:05:17;;;;;;;44.25;23.70;;;;;;;14.69;41.48;97693.50;4974561;28;20035;-69
2022/03/25 10:07:49;;;;;;;45.97;24.02;;;;;;;14.91;39.74;97690.88;4979245;28;20120;-69
2022/03/25 10:10:26;;;;;;;48.35;23.63;;;;;;;15.09;39.04;97698.69;4976044;28;20042;-68
2022/03/25 10:13:02;;;;;;;50.60;24.02;;;;;;;15.36;39.66;97690.72;4974439;28;20505;-68
2022/03/25 10:15:38;;;;;;;37.33;19.63;;;;;;;15.17;38.28;97690.19;4975659;28;20526;-71
2022/03/25 10:18:06;;;;;;;47.95;24.50;;;;;;;15.36;37.07;97692.63;4974242;28;20042;-69
2022/03/25 10:20:38;;;;;;;49.65;24.50;;;;;;;15.73;37.71;97696.38;4975328;28;20814;-71
2022/03/25 10:23:14;;;;;;;48.85;24.45;;;;;;;15.90;36.95;97687.38;4977242;28;20122;-68
2022/03/25 10:25:49;;;;;;;53.05;25.73;;;;;;;16.15;38.64;97687.66;4976027;28;20371;-70
2022/03/25 10:28:19;;;;;;;50.65;25.17;;;;;;;16.53;35.75;97693.97;4978701;28;20050;-69
2022/03/25 10:30:49;;;;;;;49.53;25.45;;;;;;;17.06;34.70;97689.56;4980485;28;21000;-70
2022/03/25 10:33:21;;;;;;;51.38;26.85;;;;;;;17.89;33.72;97687.84;4981092;28;20038;-71
2022/03/25 10:36:07;;;;;;;46.42;25.15;;;;;;;19.67;31.57;97687.91;4955054;28;20078;-70
2022/03/25 10:38:50;;;;;;;47.15;25.73;;;;;;;21.04;28.57;97690.88;4981453;28;20077;-71
2022/03/25 10:41:18;;;;;;;53.63;25.85;;;;;;;22.41;26.23;97685.78;4980920;28;20126;-71
2022/03/25 10:44:03;;;;;;;45.22;24.50;;;;;;;22.06;26.40;97682.44;4982010;28;20064;-73
2022/03/25 10:46:39;;;;;;;51.03;25.42;;;;;;;21.93;25.88;97681.22;4981793;28;20443;-71
2022/03/25 10:49:07;;;;;;;42.05;22.88;;;;;;;22.67;25.41;97686.22;4979449;28;20077;-70
2022/03/25 10:51:38;;;;;;;50.38;28.35;;;;;;;24.40;23.36;97681.06;4982315;28;20042;-71
2022/03/25 10:54:08;;;;;;;47.97;27.33;;;;;;;25.36;21.22;97668.03;4979773;28;20105;-70
2022/03/25 10:56:54;;;;;;;51.15;25.88;;;;;;;26.28;21.20;97672.53;4981307;28;20046;-71
2022/03/25 10:59:25;;;;;;;46.85;25.40;;;;;;;27.31;20.94;97665.38;4977793;28;20034;-71
2022/03/25 11:01:53;;;;;;;45.63;25.02;;;;;;;26.86;19.80;97671.28;4981871;28;20046;-70
2022/03/25 11:04:19;;;;;;;47.55;27.13;;;;;;;27.22;19.66;97664.59;4966153;28;20469;-70
2022/03/25 11:06:49;;;;;;;47.50;24.35;;;;;;;26.89;19.20;97667.88;4980369;28;20643;-70
2022/03/25 11:09:16;;;;;;;45.97;26.95;;;;;;;28.47;18.79;97659.47;4981297;28;20034;-72
2022/03/25 11:11:43;;;;;;;48.63;27.30;;;;;;;28.81;18.65;97663.88;4979211;28;20057;-72
2022/03/25 11:14:09;;;;;;;56.92;27.45;;;;;;;29.04;17.17;97661.59;4979838;28;20109;-73
2022/03/25 11:16:40;;;;;;;49.65;28.40;;;;;;;28.62;17.38;97662.75;4966867;28;20497;-73
2022/03/25 11:19:11;;;;;;;;;;;;;;;28.66;16.36;97664.50;4979747;28;20782;-71
2022/03/25 11:21:44;;;;;;;54.65;26.10;;;;;;;29.90;15.74;97658.97;4981593;28;19928;-71
2022/03/25 11:24:31;;;;;;;47.88;28.38;;;;;;;29.54;16.49;97660.56;4981347;28;20057;-70
2022/03/25 11:27:01;;;;;;;47.53;26.40;;;;;;;31.06;16.70;97660.88;4287015;28;10001166;-71